Time;durP1;ratioP1;P1;durP2;ratioP2;P2;SDS_P1;SDS_P2;PMS_P1;PMS_P2;Temp;Humidity;BMP_temperature;BMP_pressure;BME280_temperature;BME280_humidity;BME280_pressure;Samples;Min_cycle;Max_cycle;Signal;HPM_P1;HPM_P2
2024/02/27 00:02:15;;;;;;;22.23;13.90;;;;;;;;;;5052362;28;20503;-71
2024/02/27 00:05:20;;;;;;;24.33;13.10;;;;;;;;;;5051857;28;20385;-70
2024/02/27 00:08:24;;;;;;;19.00;12.75;;;;;;;;;;5052384;28;20511;-71
2024/02/27 00:11:29;;;;;;;17.77;11.35;;;;;;;;;;5052802;28;20032;-70
2024/02/27 00:14:33;;;;;;;17.70;11.02;;;;;;;;;;5052353;28;20047;-70
2024/02/27 00:17:37;;;;;;;12.85;9.20;;;;;;;;;;5052402;28;20055;-71
2024/02/27 00:20:41;;;;;;;14.88;8.85;;;;;;;;;;5051576;28;20040;-71
2024/02/27 00:23:46;;;;;;;16.13;9.52;;;;;;;;;;5052527;28;20080;-70
2024/02/27 00:26:50;;;;;;;17.42;9.38;;;;;;;;;;5052065;28;20059;-70
2024/02/27 00:29:55;;;;;;;20.25;8.77;;;;;;;;;;5052184;28;20040;-71
2024/02/27 00:32:59;;;;;;;15.48;7.75;;;;;;;;;;5052059;28;20111;-71
2024/02/27 00:36:03;;;;;;;15.27;8.75;;;;;;;;;;5051831;28;20033;-71
2024/02/27 00:39:08;;;;;;;14.85;8.05;;;;;;;;;;5051857;28;20037;-71
2024/02/27 00:42:12;;;;;;;11.25;6.50;;;;;;;;;;5050673;28;20049;-71
2024/02/27 00:45:17;;;;;;;13.38;6.75;;;;;;;;;;5050361;28;20508;-70
2024/02/27 00:48:21;;;;;;;12.30;6.10;;;;;;;;;;5051724;28;20056;-70
2024/02/27 00:51:25;;;;;;;11.30;6.03;;;;;;;;;;5051708;28;20032;-71
2024/02/27 00:54:30;;;;;;;11.43;5.70;;;;;;;;;;5051511;28;20044;-70
2024/02/27 00:57:34;;;;;;;9.80;5.35;;;;;;;;;;5051414;28;20040;-70
2024/02/27 01:00:38;;;;;;;9.07;4.78;;;;;;;;;;5051293;28;20053;-71
2024/02/27 01:03:43;;;;;;;8.13;4.40;;;;;;;;;;5050778;28;20036;-71
2024/02/27 01:06:47;;;;;;;9.57;4.43;;;;;;;;;;5051311;28;20425;-70
2024/02/27 01:09:53;;;;;;;10.00;4.25;;;;;;;;;;5051396;28;20037;-71
2024/02/27 01:12:57;;;;;;;11.65;3.53;;;;;;;;;;5051399;28;20029;-70
2024/02/27 01:16:03;;;;;;;8.20;3.88;;;;;;;;;;5051053;28;20048;-70
2024/02/27 01:19:08;;;;;;;7.82;3.97;;;;;;;;;;5051298;28;20041;-70
2024/02/27 01:22:12;;;;;;;4.35;2.72;;;;;;;;;;5051347;28;20045;-70
2024/02/27 01:25:16;;;;;;;5.93;2.13;;;;;;;;;;5051171;28;20037;-70
2024/02/27 01:28:20;;;;;;;4.68;2.08;;;;;;;;;;5051270;28;20045;-71
2024/02/27 01:31:25;;;;;;;4.80;1.92;;;;;;;;;;5051310;28;20045;-70
2024/02/27 01:34:29;;;;;;;3.90;1.63;;;;;;;;;;5050789;28;20128;-71
2024/02/27 01:37:34;;;;;;;2.83;1.38;;;;;;;;;;5049907;28;20041;-71
2024/02/27 01:40:38;;;;;;;3.65;1.40;;;;;;;;;;5050737;28;20037;-71
2024/02/27 01:43:42;;;;;;;6.78;1.48;;;;;;;;;;5050042;28;20492;-70
2024/02/27 01:46:46;;;;;;;3.55;1.10;;;;;;;;;;5050705;28;20497;-70
2024/02/27 01:49:52;;;;;;;2.78;1.20;;;;;;;;;;5050557;28;20037;-71
2024/02/27 01:52:58;;;;;;;5.25;1.50;;;13.30;89.10;;;;;;5051075;28;20362;-71
2024/02/27 01:56:03;;;;;;;2.88;0.90;;;13.40;88.40;;;;;;5051843;28;20673;-71
2024/02/27 01:59:07;;;;;;;2.53;0.80;;;;;;;;;;5053839;28;20048;-71
2024/02/27 02:02:12;;;;;;;4.80;1.13;;;13.40;88.10;;;;;;5055080;28;20053;-71
2024/02/27 02:05:16;;;;;;;3.78;1.00;;;;;;;;;;5054628;28;20056;-70
2024/02/27 02:08:20;;;;;;;5.55;1.00;;;;;;;;;;5054722;28;20045;-70
2024/02/27 02:11:25;;;;;;;2.72;1.00;;;;;;;;;;5054566;28;20485;-70
2024/02/27 02:14:29;;;;;;;4.05;1.13;;;;;;;;;;5054417;28;20033;-70
2024/02/27 02:17:34;;;;;;;4.05;1.10;;;;;;;;;;5054473;28;20037;-70
2024/02/27 02:20:39;;;;;;;3.53;1.27;;;;;;;;;;5054530;28;20036;-70
2024/02/27 02:23:44;;;;;;;4.63;1.33;;;13.30;87.40;;;;;;5054257;28;20041;-70
2024/02/27 02:26:50;;;;;;;2.70;1.20;;;;;;;;;;5054062;28;20044;-70
2024/02/27 02:29:55;;;;;;;1.80;1.00;;;;;;;;;;5053896;28;20037;-70
2024/02/27 02:32:59;;;;;;;3.13;0.90;;;;;;;;;;5054190;28;20502;-70
2024/02/27 02:36:03;;;;;;;4.53;1.27;;;;;;;;;;5053814;28;20182;-70
2024/02/27 02:39:07;;;;;;;7.35;1.20;;;;;;;;;;5054207;28;20029;-70
2024/02/27 02:42:12;;;;;;;2.53;1.00;;;;;;;;;;5053973;28;20033;-70
2024/02/27 02:45:16;;;;;;;2.97;1.17;;;;;;;;;;5053770;28;20049;-70
2024/02/27 02:48:20;;;;;;;3.63;1.30;;;;;;;;;;5053664;28;20045;-70
2024/02/27 02:51:25;;;;;;;2.50;1.15;;;;;;;;;;5053999;28;20033;-70
2024/02/27 02:54:29;;;;;;;3.25;1.02;;;;;;;;;;5053773;28;20378;-70
2024/02/27 02:57:33;;;;;;;4.68;2.33;;;;;;;;;;5053946;28;20037;-70
2024/02/27 03:00:38;;;;;;;6.40;2.40;;;;;;;;;;5051836;28;20052;-70
2024/02/27 03:03:42;;;;;;;7.68;2.28;;;;;;;;;;5052343;28;20037;-70
2024/02/27 03:06:46;;;;;;;3.58;2.15;;;;;;;;;;5051168;28;20378;-70
2024/02/27 03:09:50;;;;;;;6.60;2.40;;;;;;;;;;5052607;28;20037;-70
2024/02/27 03:12:54;;;;;;;4.80;2.17;;;;;;;;;;5052308;28;20341;-70
2024/02/27 03:15:59;;;;;;;5.18;2.03;;;;;;;;;;5052140;28;20033;-70
2024/02/27 03:19:03;;;;;;;4.30;2.10;;;;;;;;;;5052414;28;20365;-70
2024/02/27 03:22:09;;;;;;;4.78;2.15;;;13.00;90.10;;;;;;5052111;28;20045;-70
2024/02/27 03:25:13;;;;;;;5.80;2.10;;;;;;;;;;5051453;28;20048;-70
2024/02/27 03:28:17;;;;;;;5.00;1.90;;;;;;;;;;5051846;28;20045;-70
2024/02/27 03:31:22;;;;;;;6.15;2.50;;;;;;;;;;5051166;28;20045;-70
2024/02/27 03:34:26;;;;;;;7.43;2.30;;;;;;;;;;5051740;28;20041;-70
2024/02/27 03:37:30;;;;;;;4.72;2.47;;;;;;;;;;5052022;28;20037;-70
2024/02/27 03:40:35;;;;;;;6.10;3.10;;;;;;;;;;5051722;28;20037;-70
2024/02/27 03:43:39;;;;;;;10.27;3.13;;;;;;;;;;5051865;28;20370;-70
2024/02/27 03:46:44;;;;;;;9.30;3.28;;;;;;;;;;5051546;28;20041;-70
2024/02/27 03:49:48;;;;;;;7.15;3.88;;;;;;;;;;5051839;28;20048;-70
2024/02/27 03:52:52;;;;;;;9.48;4.25;;;;;;;;;;5052084;28;20234;-70
2024/02/27 03:55:57;;;;;;;10.75;3.88;;;;;;;;;;5051725;28;20041;-70
2024/02/27 03:59:01;;;;;;;11.30;3.78;;;;;;;;;;5011274;28;1161155;-70
2024/02/27 04:02:07;;;;;;;11.38;4.18;;;;;;;;;;5052559;28;20044;-70
2024/02/27 04:05:11;;;;;;;6.45;3.42;;;;;;;;;;5052569;28;20036;-70
2024/02/27 04:08:15;;;;;;;8.90;3.83;;;;;;;;;;5052295;28;20049;-70
2024/02/27 04:11:19;;;;;;;9.05;4.15;;;;;;;;;;5052401;28;20029;-70
2024/02/27 04:14:23;;;;;;;11.77;4.53;;;;;;;;;;5052303;28;20037;-70
2024/02/27 04:17:28;;;;;;;9.88;4.82;;;;;;;;;;5052421;28;20063;-70
2024/02/27 04:20:32;;;;;;;17.02;4.93;;;;;;;;;;5051862;28;20045;-70
2024/02/27 04:23:36;;;;;;;9.85;4.80;;;;;;;;;;5052852;28;20041;-70
2024/02/27 04:26:41;;;;;;;12.65;5.53;;;;;;;;;;5052177;28;20045;-70
2024/02/27 04:29:45;;;;;;;16.95;6.20;;;;;;;;;;5052291;28;20064;-70
2024/02/27 04:32:49;;;;;;;12.70;5.28;;;;;;;;;;5052288;28;20037;-70
2024/02/27 04:35:53;;;;;;;14.02;6.43;;;;;;;;;;5052122;28;20045;-70
2024/02/27 04:38:58;;;;;;;10.60;5.63;;;;;;;;;;5051227;28;20037;-70
2024/02/27 04:42:02;;;;;;;14.65;5.85;;;;;;;;;;5051999;28;20029;-70
2024/02/27 04:45:07;;;;;;;13.20;6.13;;;;;;;;;;5051522;28;20155;-70
2024/02/27 04:48:11;;;;;;;11.88;6.75;;;;;;;;;;5051472;28;20409;-70
2024/02/27 04:51:15;;;;;;;10.75;5.50;;;;;;;;;;5052092;28;20468;-70
2024/02/27 04:54:19;;;;;;;13.50;5.47;;;;;;;;;;5051265;28;20037;-70
2024/02/27 04:57:24;;;;;;;14.20;5.32;;;;;;;;;;5050774;28;20036;-70
2024/02/27 05:00:28;;;;;;;11.43;5.20;;;12.20;95.30;;;;;;5051225;28;20516;-70
2024/02/27 05:03:32;;;;;;;11.32;5.40;;;12.10;95.50;;;;;;5051184;28;20052;-70
2024/02/27 05:06:36;;;;;;;13.23;5.20;;;11.40;95.60;;;;;;5051392;28;20131;-70
2024/02/27 05:09:40;;;;;;;11.20;4.85;;;12.00;95.60;;;;;;5051407;28;20043;-70
2024/02/27 05:12:44;;;;;;;13.80;5.10;;;;;;;;;;5051291;28;20051;-70
2024/02/27 05:15:50;;;;;;;9.77;5.20;;;;;;;;;;5051236;28;20488;-70
2024/02/27 05:18:53;;;;;;;13.20;5.20;;;11.60;95.60;;;;;;5051104;28;20049;-70
2024/02/27 05:21:58;;;;;;;12.07;5.00;;;11.80;96.10;;;;;;5050257;28;20673;-70
2024/02/27 05:25:02;;;;;;;15.60;5.80;;;11.90;96.00;;;;;;5050925;28;20043;-70
2024/02/27 05:28:06;;;;;;;12.63;5.57;;;11.90;95.80;;;;;;5050097;28;20051;-70
2024/02/27 05:31:27;;;;;;;17.42;6.32;;;11.80;95.70;;;;;;5050830;28;20043;-70
2024/02/27 05:34:32;;;;;;;14.73;6.32;;;11.90;95.90;;;;;;5050873;28;20126;-70
2024/02/27 05:37:36;;;;;;;10.48;5.95;;;11.90;95.90;;;;;;5051163;28;20044;-70
2024/02/27 05:40:41;;;;;;;15.13;6.25;;;11.10;95.60;;;;;;5050917;28;20048;-70
2024/02/27 05:43:45;;;;;;;16.13;6.03;;;12.00;95.80;;;;;;5050931;28;20040;-70
2024/02/27 05:46:49;;;;;;;21.48;6.88;;;10.90;95.70;;;;;;5050030;28;20408;-70
2024/02/27 05:49:56;;;;;;;15.45;5.93;;;12.10;95.90;;;;;;5050951;28;20396;-70
2024/02/27 05:53:00;;;;;;;12.75;5.97;;;;;;;;;;5050713;28;20499;-70
2024/02/27 05:56:04;;;;;;;16.25;6.32;;;10.00;94.50;;;;;;5050787;28;20041;-70
2024/02/27 05:59:08;;;;;;;14.13;6.63;;;9.60;94.50;;;;;;5049717;28;20516;-70
2024/02/27 06:02:12;;;;;;;13.82;5.97;;;12.10;95.20;;;;;;5050621;28;20045;-70
2024/02/27 06:05:16;;;;;;;18.55;6.93;;;12.20;95.10;;;;;;5050507;28;20048;-71
2024/02/27 06:08:21;;;;;;;15.07;6.43;;;12.10;95.10;;;;;;5050453;28;20055;-72
2024/02/27 06:11:25;;;;;;;13.73;6.80;;;9.50;94.60;;;;;;5050708;28;20048;-67
2024/02/27 06:14:29;;;;;;;16.20;5.95;;;11.90;95.30;;;;;;5050459;28;20055;-68
2024/02/27 06:17:33;;;;;;;15.88;7.90;;;12.00;95.50;;;;;;5050768;28;20040;-67
2024/02/27 06:24:00;;;;;;;19.80;7.72;;;;;;;;;;5050238;28;20400;-67
2024/02/27 06:27:05;;;;;;;15.93;7.20;;;12.00;95.30;;;;;;5050285;28;20049;-67
2024/02/27 06:30:09;;;;;;;17.38;7.78;;;11.30;95.30;;;;;;5050226;28;20048;-67
2024/02/27 06:33:13;;;;;;;18.92;8.07;;;12.20;95.50;;;;;;5050444;28;20671;-67
2024/02/27 06:36:17;;;;;;;30.38;9.95;;;11.30;95.50;;;;;;5050220;28;20496;-67
2024/02/27 06:39:21;;;;;;;23.75;9.10;;;9.30;95.00;;;;;;5050348;28;20072;-67
2024/02/27 06:42:25;;;;;;;20.52;8.00;;;9.50;95.20;;;;;;5051534;28;20044;-67
2024/02/27 06:45:30;;;;;;;27.10;8.55;;;;;;;;;;5053612;28;20047;-67
2024/02/27 06:48:34;;;;;;;21.25;7.97;;;12.30;95.70;;;;;;5053647;28;20378;-67
2024/02/27 06:51:38;;;;;;;16.80;8.40;;;14.10;96.10;;;;;;5053890;28;20060;-67
2024/02/27 06:54:43;;;;;;;37.38;9.95;;;;;;;;;;5053662;28;20068;-67
2024/02/27 06:57:47;;;;;;;24.10;8.43;;;12.50;95.50;;;;;;5053637;28;20037;-67
2024/02/27 07:00:51;;;;;;;29.75;9.15;;;;;;;;;;5053223;28;20056;-67
2024/02/27 07:03:55;;;;;;;19.60;7.97;;;11.00;94.80;;;;;;5053443;28;20503;-67
2024/02/27 07:07:01;;;;;;;20.02;7.32;;;11.50;94.90;;;;;;5053055;28;20114;-67
2024/02/27 07:10:05;;;;;;;15.23;7.20;;;;;;;;;;5053467;28;20067;-67
2024/02/27 07:13:09;;;;;;;35.45;8.57;;;;;;;;;;5052907;28;20037;-67
2024/02/27 07:16:13;;;;;;;20.65;6.72;;;;;;;;;;5053116;28;20049;-68
2024/02/27 07:19:19;;;;;;;23.08;9.30;;;;;;;;;;5052869;28;20147;-67
2024/02/27 07:22:24;;;;;;;14.13;6.95;;;;;;;;;;5052839;28;20414;-67
2024/02/27 07:25:28;;;;;;;12.85;5.70;;;;;;;;;;5053200;28;20044;-67
2024/02/27 07:28:33;;;;;;;16.60;6.10;;;;;;;;;;5052924;28;20048;-67
2024/02/27 07:31:37;;;;;;;11.70;5.43;;;;;;;;;;5052895;28;20477;-67
2024/02/27 07:34:46;;;;;;;11.73;4.93;;;;;;;;;;5053090;28;20037;-68
2024/02/27 07:37:51;;;;;;;12.35;4.57;;;;;;;;;;5052799;28;20416;-67
2024/02/27 07:40:55;;;;;;;12.90;4.40;;;;;;;;;;5052720;28;20378;-67
2024/02/27 07:43:59;;;;;;;10.80;3.75;;;;;;;;;;5052454;28;20500;-67
2024/02/27 07:47:03;;;;;;;6.07;2.13;;;;;;;;;;5052561;28;20055;-68
2024/02/27 07:50:08;;;;;;;6.10;2.53;;;18.20;87.60;;;;;;5052581;28;20049;-67
2024/02/27 07:53:12;;;;;;;7.35;3.00;;;;;;;;;;5051544;28;20120;-67
2024/02/27 07:56:18;;;;;;;9.65;2.53;;;;;;;;;;5052515;28;20040;-67
2024/02/27 07:59:24;;;;;;;5.30;2.78;;;;;;;;;;5052025;28;20053;-67
2024/02/27 08:02:28;;;;;;;11.65;5.30;;;;;;;;;;5052435;28;20033;-67
2024/02/27 08:05:32;;;;;;;9.13;1.90;;;;;;;;;;5052311;28;20041;-67
2024/02/27 08:08:36;;;;;;;12.52;4.13;;;;;;;;;;5052167;28;20053;-67
2024/02/27 08:11:40;;;;;;;7.05;2.08;;;;;;;;;;5052082;28;20037;-67
2024/02/27 08:14:45;;;;;;;5.28;1.58;;;;;;;;;;5051902;28;20036;-67
2024/02/27 08:17:49;;;;;;;6.88;1.83;;;;;;;;;;5052382;28;20037;-67
2024/02/27 08:20:53;;;;;;;9.02;2.20;;;;;;;;;;5051850;28;20041;-67
2024/02/27 08:23:58;;;;;;;10.55;2.00;;;;;;;;;;5051522;28;20037;-67
2024/02/27 08:27:02;;;;;;;10.88;2.47;;;;;;;;;;5051527;28;20044;-67
2024/02/27 08:30:07;;;;;;;4.63;2.30;;;;;;;;;;5051571;28;20041;-67
2024/02/27 08:33:11;;;;;;;8.07;2.83;;;;;;;;;;5051614;28;20037;-67
2024/02/27 08:36:15;;;;;;;8.27;3.03;;;;;;;;;;5051678;28;20044;-67
2024/02/27 08:39:19;;;;;;;8.40;3.70;;;;;;;;;;5051864;28;20037;-67
2024/02/27 08:42:24;;;;;;;9.27;3.15;;;;;;;;;;5051670;28;20032;-67
2024/02/27 08:45:28;;;;;;;8.32;3.28;;;;;;;;;;5050890;28;20041;-67
2024/02/27 08:48:32;;;;;;;17.30;5.43;;;;;;;;;;5050845;28;20053;-67
2024/02/27 08:51:37;;;;;;;8.85;3.45;;;;;;;;;;5051506;28;20499;-67
2024/02/27 08:54:41;;;;;;;8.07;3.38;;;;;;;;;;5050585;28;20029;-67
2024/02/27 08:57:45;;;;;;;6.32;3.13;;;;;;;;;;5051000;28;20041;-68
2024/02/27 09:00:50;;;;;;;7.18;2.10;;;;;;;;;;5050906;28;20045;-68
2024/02/27 09:03:54;;;;;;;11.05;2.13;;;;;;;;;;5050949;28;20045;-68
2024/02/27 09:06:58;;;;;;;9.95;2.38;;;;;;;;;;5050951;28;20405;-67
2024/02/27 09:10:04;;;;;;;9.55;2.63;;;;;;;;;;5051151;28;20544;-68
2024/02/27 09:13:09;;;;;;;5.88;2.35;;;;;;;;;;5051097;28;20037;-68
2024/02/27 09:16:13;;;;;;;5.32;2.22;;;;;;;;;;5050775;28;20045;-68
2024/02/27 09:19:17;;;;;;;5.00;1.08;;;;;;;;;;5050035;28;20044;-68
2024/02/27 09:22:21;;;;;;;6.28;1.73;;;;;;;;;;5050209;28;20045;-68
2024/02/27 09:25:26;;;;;;;3.42;1.00;;;;;;;;;;5050716;28;20449;-67
2024/02/27 09:28:30;;;;;;;8.55;1.90;;;;;;;;;;5050586;28;20052;-68
2024/02/27 09:31:34;;;;;;;5.40;1.10;;;;;;;;;;5050842;28;20505;-68
2024/02/27 09:34:41;;;;;;;4.25;1.02;;;;;;;;;;5050476;28;20374;-68
2024/02/27 09:37:45;;;;;;;3.20;1.05;;;;;;;;;;5050708;28;20037;-68
2024/02/27 09:40:54;;;;;;;2.97;0.90;;;;;;;;;;5050809;28;20037;-68
2024/02/27 09:43:58;;;;;;;7.95;1.30;;;;;;;;;;5050667;28;20367;-68
2024/02/27 09:47:03;;;;;;;3.33;1.48;;;19.00;73.20;;;;;;5050868;28;20041;-68
2024/02/27 09:50:08;;;;;;;4.15;1.30;;;;;;;;;;5050752;28;20499;-68
2024/02/27 09:53:13;;;;;;;5.28;1.52;;;;;;;;;;5050778;28;20028;-68
2024/02/27 09:56:17;;;;;;;6.18;1.70;;;;;;;;;;5050770;28;20044;-67
2024/02/27 09:59:21;;;;;;;6.28;2.13;;;;;;;;;;5050732;28;20049;-67
2024/02/27 10:02:26;;;;;;;3.47;1.45;;;;;;;;;;5050710;28;20037;-67
2024/02/27 10:05:30;;;;;;;7.15;2.00;;;;;;;;;;5050566;28;20041;-68
2024/02/27 10:08:36;;;;;;;7.43;2.33;;;19.00;71.50;;;;;;5050190;28;20049;-68
2024/02/27 10:11:41;;;;;;;5.15;1.35;;;;;;;;;;5050468;28;20044;-68
2024/02/27 10:14:45;;;;;;;5.68;1.90;;;;;;;;;;5050363;28;20041;-68
2024/02/27 10:17:49;;;;;;;5.10;1.10;;;20.60;71.80;;;;;;5052499;28;20041;-68
2024/02/27 10:20:53;;;;;;;3.53;0.98;;;;;;;;;;5054122;28;20047;-68
2024/02/27 10:23:57;;;;;;;3.22;1.00;;;;;;;;;;5054194;28;20378;-68
2024/02/27 10:27:07;;;;;;;5.07;1.23;;;;;;;;;;5054003;28;20032;-68
2024/02/27 10:30:12;;;;;;;3.40;1.13;;;;;;;;;;5053902;28;20044;-68
2024/02/27 10:33:16;;;;;;;5.18;0.90;;;;;;;;;;5053817;28;20033;-68
2024/02/27 10:36:21;;;;;;;9.02;1.63;;;;;;;;;;5053757;28;20037;-68
2024/02/27 10:39:25;;;;;;;5.13;1.60;;;;;;;;;;5053670;28;20041;-69
2024/02/27 10:42:32;;;;;;;10.98;1.65;;;20.60;71.70;;;;;;5053993;28;20044;-68
2024/02/27 10:45:37;;;;;;;6.43;2.17;;;;;;;;;;5054118;28;20052;-67
2024/02/27 10:48:44;;;;;;;11.02;2.63;;;20.00;71.30;;;;;;5053813;28;20394;-67
2024/02/27 10:51:49;;;;;;;6.63;2.35;;;;;;;;;;5053907;28;20366;-67
2024/02/27 10:54:53;;;;;;;5.30;2.03;;;;;;;;;;5053840;28;20041;-67
2024/02/27 10:57:59;;;;;;;12.75;2.70;;;21.20;71.60;;;;;;5053431;28;20033;-68
2024/02/27 11:01:06;;;;;;;10.70;2.30;;;20.40;71.80;;;;;;5053302;28;20052;-68
2024/02/27 11:04:19;;;;;;;12.18;1.92;;;20.90;72.10;;;;;;5053478;28;20044;-68
2024/02/27 11:07:24;;;;;;;7.50;1.48;;;;;;;;;;5053069;28;20063;-68
2024/02/27 11:10:29;;;;;;;4.25;1.50;;;;;;;;;;5053190;28;20045;-68
2024/02/27 11:13:35;;;;;;;10.60;2.00;;;20.20;71.70;;;;;;5053086;28;20033;-67
2024/02/27 11:16:49;;;;;;;10.40;2.08;;;19.70;70.70;;;;;;5053291;28;20056;-68
2024/02/27 11:19:57;;;;;;;11.68;2.05;;;;;;;;;;5053232;28;20056;-67
2024/02/27 11:23:01;;;;;;;7.15;1.27;;;;;;;;;;5053080;28;20039;-67
2024/02/27 11:26:05;;;;;;;6.40;1.42;;;;;;;;;;5053028;28;20033;-67
2024/02/27 11:29:10;;;;;;;6.68;1.50;;;;;;;;;;5052528;28;20045;-67
2024/02/27 11:32:15;;;;;;;6.03;1.42;;;20.20;71.60;;;;;;5052056;28;20037;-67
2024/02/27 11:35:21;;;;;;;5.35;1.30;;;22.20;72.70;;;;;;5052667;28;20064;-68
2024/02/27 11:38:34;;;;;;;6.53;1.17;;;19.60;71.20;;;;;;5052810;28;20040;-68
2024/02/27 11:41:39;;;;;;;9.85;1.75;;;20.10;72.50;;;;;;5052709;28;20044;-68
2024/02/27 11:45:10;;;;;;;8.32;1.75;;;20.10;72.00;;;;;;5052680;28;20036;-68
2024/02/27 11:48:15;;;;;;;;;;;;;;;;;;5053059;28;20075;-68
2024/02/27 11:51:26;;;;;;;3.15;1.40;;;19.90;72.10;;;;;;5052643;28;20276;-68
2024/02/27 11:54:34;;;;;;;;;;;19.60;72.80;;;;;;5052751;28;20044;-67
2024/02/27 11:57:38;;;;;;;5.60;1.45;;;;;;;;;;5052677;28;20102;-67
2024/02/27 12:00:45;;;;;;;8.40;2.25;;;19.70;73.90;;;;;;5052286;28;20052;-68
2024/02/27 12:03:50;;;;;;;7.45;2.22;;;;;;;;;;5052449;28;20052;-68
2024/02/27 12:06:54;;;;;;;9.63;2.10;;;;;;;;;;5052226;28;20045;-68
2024/02/27 12:10:12;;;;;;;15.20;2.47;;;;;;;;;;5052390;28;20378;-67
2024/02/27 12:13:16;;;;;;;17.60;2.13;;;;;;;;;;5052317;28;20074;-68
2024/02/27 12:16:23;;;;;;;22.77;3.92;;;;;;;;;;5052260;28;20107;-68
2024/02/27 12:19:27;;;;;;;22.08;2.60;;;;;;;;;;5052154;28;20051;-68
2024/02/27 12:22:32;;;;;;;26.95;2.80;;;;;;;;;;5051856;28;20041;-68
2024/02/27 12:25:45;;;;;;;9.55;2.78;;;19.70;77.90;;;;;;5051613;28;20040;-68
2024/02/27 12:28:52;;;;;;;15.45;2.85;;;;;;;;;;5051832;28;20056;-67
2024/02/27 12:31:57;;;;;;;24.50;3.30;;;;;;;;;;5051040;28;20400;-67
2024/02/27 12:35:08;;;;;;;15.07;2.60;;;19.90;78.00;;;;;;5051939;28;20073;-67
2024/02/27 12:38:12;;;;;;;;;;;19.90;77.90;;;;;;5052066;28;20052;-67
2024/02/27 12:41:17;;;;;;;27.05;2.78;;;;;;;;;;5050974;28;19916;-67
2024/02/27 12:44:21;;;;;;;24.95;3.13;;;;;;;;;;5051744;28;20036;-67
2024/02/27 12:47:25;;;;;;;24.30;2.92;;;;;;;;;;5051621;28;20036;-67
2024/02/27 12:50:30;;;;;;;16.40;2.90;;;;;;;;;;5051726;28;20374;-69
2024/02/27 12:53:34;;;;;;;23.35;3.20;;;;;;;;;;5051199;28;20041;-67
2024/02/27 12:56:38;;;;;;;23.02;3.28;;;;;;;;;;5051238;28;20052;-68
2024/02/27 12:59:43;;;;;;;22.70;3.15;;;17.70;78.10;;;;;;5050652;28;20052;-67
2024/02/27 13:02:55;;;;;;;29.70;3.40;;;19.60;78.90;;;;;;5049178;28;20048;-68
2024/02/27 13:06:03;;;;;;;27.13;3.58;;;;;;;;;;5050587;28;20404;-68
2024/02/27 13:09:07;;;;;;;16.90;3.28;;;;;;;;;;5050805;28;20053;-68
2024/02/27 13:12:15;;;;;;;22.60;3.03;;;;;;;;;;5051031;28;20398;-68
2024/02/27 13:15:19;;;;;;;19.75;3.08;;;;;;;;;;5050917;28;20041;-69
2024/02/27 13:18:24;;;;;;;20.00;3.40;;;;;;;;;;5050936;28;20044;-68
2024/02/27 13:21:29;;;;;;;24.33;3.08;;;;;;;;;;5051063;28;20048;-68
2024/02/27 13:24:35;;;;;;;25.30;3.38;;;;;;;;;;5051126;28;20041;-69
2024/02/27 13:27:39;;;;;;;41.25;4.13;;;;;;;;;;5050815;28;20044;-69
2024/02/27 13:30:44;;;;;;;33.05;4.47;;;;;;;;;;5051012;28;20049;-68
2024/02/27 13:33:49;;;;;;;37.22;4.88;;;;;;;;;;5050419;28;20041;-66
2024/02/27 13:36:53;;;;;;;27.90;4.57;;;;;;;;;;5050138;28;20037;-67
2024/02/27 13:39:58;;;;;;;26.05;3.85;;;;;;;;;;5050711;28;20044;-67
2024/02/27 13:43:02;;;;;;;27.60;4.32;;;;;;;;;;5048056;28;20049;-67
2024/02/27 13:46:07;;;;;;;36.85;4.15;;;;;;;;;;5050802;28;20045;-68
2024/02/27 13:49:22;;;;;;;38.05;4.28;;;20.10;78.30;;;;;;5050420;28;20045;-67
2024/02/27 13:52:27;;;;;;;36.28;5.13;;;;;;;;;;5054181;28;20044;-67
2024/02/27 13:55:31;;;;;;;35.30;4.70;;;;;;;;;;5054726;28;20576;-67
2024/02/27 13:58:36;;;;;;;33.33;4.63;;;;;;;;;;5054665;28;20037;-67
2024/02/27 14:01:41;;;;;;;41.63;5.07;;;;;;;;;;5053193;28;20053;-67
2024/02/27 14:04:45;;;;;;;37.05;4.72;;;;;;;;;;5054533;28;20029;-68
2024/02/27 14:07:51;;;;;;;41.88;5.35;;;;;;;;;;5054285;28;20047;-66
2024/02/27 14:10:59;;;;;;;31.92;4.75;;;;;;;;;;5054333;28;20049;-66
2024/02/27 14:14:03;;;;;;;53.33;9.23;;;;;;;;;;5054572;28;20044;-66
2024/02/27 14:17:07;;;;;;;55.72;6.43;;;;;;;;;;5054439;28;20041;-66
2024/02/27 14:20:11;;;;;;;46.00;6.10;;;;;;;;;;5054124;28;20397;-68
2024/02/27 14:23:16;;;;;;;46.95;5.85;;;;;;;;;;5054017;28;20045;-67
2024/02/27 14:26:20;;;;;;;67.05;7.40;;;;;;;;;;5053922;28;20040;-67
2024/02/27 14:29:24;;;;;;;51.20;5.95;;;;;;;;;;5054034;28;20051;-68
2024/02/27 14:32:29;;;;;;;56.47;6.55;;;;;;;;;;5054145;28;20050;-66
2024/02/27 14:35:35;;;;;;;48.97;7.05;;;;;;;;;;5054233;28;20049;-67
2024/02/27 14:38:41;;;;;;;59.67;6.72;;;19.50;81.40;;;;;;5054250;28;20528;-66
2024/02/27 14:41:46;;;;;;;54.97;6.72;;;;;;;;;;5053467;28;20036;-65
2024/02/27 14:44:50;;;;;;;59.97;7.85;;;;;;;;;;5053694;28;20036;-67
2024/02/27 14:47:54;;;;;;;62.10;6.97;;;;;;;;;;5053432;28;20629;-66
2024/02/27 14:51:00;;;;;;;55.40;8.10;;;;;;;;;;5053510;28;20401;-67
2024/02/27 14:54:04;;;;;;;55.25;7.97;;;;;;;;;;5053455;28;20063;-64
2024/02/27 14:57:14;;;;;;;47.80;6.95;;;;;;;;;;5053045;28;20037;-67
2024/02/27 15:00:18;;;;;;;46.85;7.22;;;;;;;;;;5053217;28;20056;-66
2024/02/27 15:03:23;;;;;;;59.38;8.57;;;;;;;;;;5052688;28;20037;-66
2024/02/27 15:06:27;;;;;;;48.47;6.40;;;;;;;;;;5053207;28;20033;-67
2024/02/27 15:09:31;;;;;;;43.78;6.80;;;;;;;;;;5053160;28;20045;-67
2024/02/27 15:12:35;;;;;;;52.42;7.80;;;;;;;;;;5053319;28;20045;-69
2024/02/27 15:15:40;;;;;;;61.00;6.13;;;;;;;;;;5053492;28;20036;-66
2024/02/27 15:18:44;;;;;;;45.92;6.90;;;;;;;;;;5053127;28;20040;-67
2024/02/27 15:21:48;;;;;;;57.33;6.88;;;;;;;;;;5053576;28;20045;-67
2024/02/27 15:24:53;;;;;;;58.70;7.38;;;;;;;;;;5053094;28;20068;-66
2024/02/27 15:27:57;;;;;;;64.30;7.68;;;;;;;;;;5052851;28;20041;-67
2024/02/27 15:31:01;;;;;;;53.97;8.68;;;;;;;;;;5053332;28;20041;-67
2024/02/27 15:34:06;;;;;;;61.25;8.35;;;;;;;;;;5052625;28;20212;-66
2024/02/27 15:37:10;;;;;;;74.25;9.35;;;;;;;;;;5052975;28;20481;-67
2024/02/27 15:40:15;;;;;;;67.18;8.18;;;;;;;;;;5052928;28;20045;-67
2024/02/27 15:43:19;;;;;;;51.63;7.40;;;;;;;;;;5052884;28;20048;-68
2024/02/27 15:46:25;;;;;;;65.95;7.18;;;;;;;;;;5052983;28;20037;-67
2024/02/27 15:49:30;;;;;;;62.38;7.75;;;;;;;;;;5051629;28;20049;-70
2024/02/27 15:52:34;;;;;;;60.92;8.27;;;;;;;;;;5052598;28;20041;-67
2024/02/27 15:55:40;;;;;;;66.15;8.07;;;;;;;;;;5052463;28;20064;-67
2024/02/27 15:58:44;;;;;;;66.35;7.85;;;;;;;;;;5052405;28;20052;-68
2024/02/27 16:01:49;;;;;;;65.70;9.68;;;;;;;;;;5052295;28;20112;-68
2024/02/27 16:04:56;;;;;;;70.13;9.13;;;19.20;85.50;;;;;;5052393;28;20045;-68
2024/02/27 16:08:00;;;;;;;80.35;8.88;;;;;;;;;;5052362;28;20044;-67
2024/02/27 16:11:05;;;;;;;72.75;9.48;;;;;;;;;;5052027;28;20406;-67
2024/02/27 16:14:09;;;;;;;75.32;9.93;;;;;;;;;;5051384;28;20172;-68
2024/02/27 16:17:13;;;;;;;59.45;10.43;;;;;;;;;;5052146;28;20473;-67
2024/02/27 16:20:18;;;;;;;76.63;10.32;;;;;;;;;;5051676;28;20044;-66
2024/02/27 16:23:25;;;;;;;67.45;9.95;;;;;;;;;;5051614;28;20396;-66
2024/02/27 16:26:29;;;;;;;72.10;12.10;;;;;;;;;;5052110;28;20036;-66
2024/02/27 16:29:33;;;;;;;71.22;9.25;;;;;;;;;;5051563;28;20052;-65
2024/02/27 16:32:39;;;;;;;79.65;11.02;;;;;;;;;;5051318;28;20040;-66
2024/02/27 16:35:44;;;;;;;59.15;9.80;;;;;;;;;;5051792;28;20044;-67
2024/02/27 16:38:48;;;;;;;66.45;11.02;;;;;;;;;;5051702;28;20037;-67
2024/02/27 16:41:52;;;;;;;69.10;12.80;;;;;;;;;;5051246;28;20052;-65
2024/02/27 16:44:57;;;;;;;67.43;11.52;;;;;;;;;;5051613;28;20557;-65
2024/02/27 16:48:02;;;;;;;80.53;13.25;;;;;;;;;;5051035;28;20052;-66
2024/02/27 16:51:06;;;;;;;67.40;11.40;;;;;;;;;;5051609;28;20052;-66
2024/02/27 16:54:11;;;;;;;80.03;12.90;;;;;;;;;;5050495;28;20415;-67
2024/02/27 16:57:15;;;;;;;65.65;12.35;;;;;;;;;;5051472;28;20048;-65
2024/02/27 17:00:21;;;;;;;80.63;13.00;;;;;;;;;;5050933;28;20059;-66
2024/02/27 17:03:25;;;;;;;70.68;12.23;;;;;;;;;;5051031;28;20404;-68
2024/02/27 17:06:30;;;;;;;67.22;12.23;;;;;;;;;;5051176;28;20048;-68
2024/02/27 17:09:34;;;;;;;49.42;10.90;;;;;;;;;;5050683;28;20052;-68
2024/02/27 17:12:39;;;;;;;63.88;12.73;;;;;;;;;;5050845;28;20040;-67
2024/02/27 17:15:43;;;;;;;59.80;12.80;;;;;;;;;;5050294;28;20143;-68
2024/02/27 17:18:47;;;;;;;79.32;12.98;;;;;;;;;;5050722;28;20040;-67
2024/02/27 17:21:52;;;;;;;77.68;12.73;;;;;;;;;;5050175;28;20064;-67
2024/02/27 17:24:56;;;;;;;67.65;13.40;;;;;;;;;;5050993;28;20051;-68
2024/02/27 17:28:00;;;;;;;61.90;13.88;;;;;;;;;;5050689;28;20039;-67
2024/02/27 17:31:04;;;;;;;74.30;15.35;;;;;;;;;;5051030;28;20397;-67
2024/02/27 17:34:09;;;;;;;64.88;14.93;;;;;;;;;;5049594;28;20150;-67
2024/02/27 17:37:13;;;;;;;87.88;17.17;;;;;;;;;;5050974;28;20052;-68
2024/02/27 17:40:18;;;;;;;69.10;15.88;;;;;;;;;;5050719;28;20048;-66
2024/02/27 17:43:22;;;;;;;82.15;15.40;;;;;;;;;;5050498;28;20055;-69
2024/02/27 17:46:26;;;;;;;88.30;17.23;;;;;;;;;;5050833;28;20043;-67
2024/02/27 17:49:32;;;;;;;69.28;14.35;;;;;;;;;;5049666;28;20076;-68
2024/02/27 17:52:36;;;;;;;91.88;16.40;;;;;;;;;;5049535;28;20040;-68